Time;durP1;ratioP1;P1;durP2;ratioP2;P2;SDS_P1;SDS_P2;PMS_P1;PMS_P2;Temp;Humidity;BMP_temperature;BMP_pressure;BME280_temperature;BME280_humidity;BME280_pressure;Samples;Min_cycle;Max_cycle;Signal;HPM_P1;HPM_P2
2022/10/08 00:01:06;;;;;;;13.05;6.95;;;;;;;12.68;100.00;100608.28;5105387;28;20124;-82
2022/10/08 00:03:37;;;;;;;18.02;7.38;;;;;;;12.69;100.00;100616.19;5107063;28;20064;-74
2022/10/08 00:06:11;;;;;;;16.08;7.28;;;;;;;12.71;100.00;100605.47;5099853;28;20054;-80
2022/10/08 00:08:40;;;;;;;14.07;7.05;;;;;;;12.74;100.00;100616.81;5105017;28;20036;-78
2022/10/08 00:11:09;;;;;;;14.57;7.25;;;;;;;12.76;100.00;100624.66;5103910;27;20155;-81
2022/10/08 00:13:40;;;;;;;17.35;7.32;;;;;;;12.77;100.00;100626.38;5101451;28;20075;-77
2022/10/08 00:16:32;;;;;;;14.05;7.35;;;;;;;12.62;100.00;100602.34;5104857;28;20135;-80
2022/10/08 00:19:05;;;;;;;15.95;6.38;;;;;;;12.78;100.00;100626.31;5099728;28;20170;-84
2022/10/08 00:21:35;;;;;;;10.95;6.50;;;;;;;12.78;100.00;100617.47;5104366;28;20058;-80
2022/10/08 00:24:03;;;;;;;17.05;5.78;;;;;;;12.74;100.00;100613.28;5106394;28;20060;-83
2022/10/08 00:26:32;;;;;;;16.13;6.30;;;;;;;12.76;100.00;100624.66;5101850;28;20040;-73
2022/10/08 00:29:01;;;;;;;15.82;6.85;;;;;;;12.73;100.00;100612.44;5106122;28;20625;-84
2022/10/08 00:31:33;;;;;;;15.18;6.57;;;;;;;12.75;100.00;100615.84;5107056;28;20067;-74
2022/10/08 00:34:04;;;;;;;16.35;6.53;;;;;;;12.76;100.00;100614.91;5108792;28;20075;-83
2022/10/08 00:36:34;;;;;;;11.80;6.43;;;;;;;12.77;100.00;100610.44;5111144;28;20462;-82
2022/10/08 00:39:12;;;;;;;11.52;6.20;;;;;;;12.75;100.00;100610.53;5105327;28;20056;-79
2022/10/08 00:41:40;;;;;;;12.07;5.95;;;;;;;12.73;100.00;100607.13;5106767;28;20058;-81
2022/10/08 00:44:44;;;;;;;14.60;6.03;;;;;;;12.74;100.00;100610.63;5107942;28;20112;-75
2022/10/08 00:47:19;;;;;;;15.13;7.20;;;;;;;12.70;100.00;100601.97;5105417;28;20083;-84
2022/10/08 00:49:48;;;;;;;13.82;6.68;;;;;;;12.70;100.00;100614.38;5101155;28;20054;-72
2022/10/08 00:52:17;;;;;;;14.67;6.53;;;;;;;12.66;100.00;100595.06;5101428;28;20111;-85
2022/10/08 00:54:44;;;;;;;15.25;6.00;;;;;;;12.68;100.00;100601.16;5102383;28;20097;-78
2022/10/08 00:57:11;;;;;;;17.00;6.32;;;;;;;12.68;100.00;100606.50;5105629;28;20057;-80
2022/10/08 00:59:38;;;;;;;13.35;6.32;;;;;;;12.69;100.00;100605.56;5107959;28;20111;-76
2022/10/08 01:02:07;;;;;;;10.80;6.05;;;;;;;12.74;100.00;100605.31;5111330;28;20043;-84
2022/10/08 01:04:35;;;;;;;13.75;6.00;;;;;;;12.61;100.00;100584.69;5112285;28;20058;-79
2022/10/08 01:07:11;;;;;;;12.27;5.75;;;;;;;12.82;100.00;100603.97;5105470;28;21175;-75
2022/10/08 01:09:47;;;;;;;13.00;5.75;;;;;;;12.92;100.00;100610.50;5102680;27;20035;-79
2022/10/08 01:12:45;;;;;;;12.35;5.15;;;;;;;12.86;100.00;100576.28;5111336;28;20035;-82
2022/10/08 01:15:22;;;;;;;11.38;5.45;;;;;;;13.03;100.00;100594.00;5103028;28;20056;-83
2022/10/08 01:18:05;;;;;;;11.35;5.10;;;;;;;13.09;100.00;100598.09;5105440;28;20060;-81
2022/10/08 01:20:50;;;;;;;13.57;5.03;;;;;;;13.11;100.00;100591.75;5105920;28;20070;-75
2022/10/08 01:23:55;;;;;;;11.38;4.78;;;;;;;13.14;100.00;100588.09;5109743;27;20048;-81
2022/10/08 01:26:39;;;;;;;8.40;5.07;;;;;;;13.18;100.00;100587.00;5066194;28;20036;-84
2022/10/08 01:29:09;;;;;;;9.65;4.88;;;;;;;13.09;100.00;100576.81;5102384;28;20495;-80
2022/10/08 01:32:02;;;;;;;10.23;4.47;;;;;;;13.19;100.00;100599.38;5110527;28;20047;-72
2022/10/08 01:34:36;;;;;;;10.27;4.40;;;;;;;13.21;100.00;100601.00;5120154;28;20043;-74
2022/10/08 01:37:05;;;;;;;9.50;4.93;;;;;;;13.19;99.72;100602.88;5115165;28;20260;-84
2022/10/08 01:39:35;;;;;;;13.55;5.03;;;;;;;12.99;99.77;100574.69;5111849;28;20048;-78
2022/10/08 01:42:05;;;;;;;13.18;5.15;;;;;;;13.04;99.31;100587.75;5110551;28;20155;-77
2022/10/08 01:44:34;;;;;;;;;;;;;;;13.10;98.80;100597.16;5103345;28;20059;-85
2022/10/08 01:47:10;;;;;;;10.48;4.30;;;;;;;13.08;98.89;100593.72;5099542;28;19954;-81
2022/10/08 01:49:46;;;;;;;13.30;5.30;;;;;;;13.06;99.18;100593.84;5102823;28;20048;-71
2022/10/08 01:52:24;;;;;;;7.82;4.63;;;;;;;13.05;99.13;100594.78;5102483;28;20051;-84
2022/10/08 01:54:55;;;;;;;11.27;4.93;;;;;;;12.99;99.05;100589.78;5100276;27;20810;-81
2022/10/08 01:57:25;;;;;;;10.93;4.78;;;;;;;13.01;99.14;100595.88;5097939;28;20047;-84
2022/10/08 01:59:58;;;;;;;9.88;5.03;;;;;;;12.95;99.15;100599.69;5102479;28;20043;-80
2022/10/08 02:02:25;;;;;;;14.90;5.25;;;;;;;12.88;99.72;100595.69;5104430;28;20075;-76
2022/10/08 02:04:53;;;;;;;11.93;5.13;;;;;;;12.82;100.00;100603.09;5105200;28;20128;-80
2022/10/08 02:07:30;;;;;;;10.25;4.20;;;;;;;12.58;100.00;100579.56;5106947;28;20378;-80
2022/10/08 02:10:18;;;;;;;10.10;4.97;;;;;;;12.71;100.00;100606.34;5118715;28;20112;-71
2022/10/08 02:12:44;;;;;;;11.15;4.72;;;;;;;12.65;100.00;100611.97;5121210;27;20103;-76
2022/10/08 02:15:42;;;;;;;10.05;4.88;;;;;;;12.60;100.00;100611.31;5118224;28;20274;-73
2022/10/08 02:18:14;;;;;;;13.52;4.80;;;;;;;12.48;100.00;100590.72;5113869;28;20055;-82
2022/10/08 02:20:52;;;;;;;8.68;4.75;;;;;;;12.50;100.00;100602.13;5108899;28;20130;-75
2022/10/08 02:23:31;;;;;;;10.55;4.93;;;;;;;12.51;100.00;100598.53;5110848;28;20756;-81
2022/10/08 02:26:04;;;;;;;12.00;4.50;;;;;;;12.47;100.00;100597.81;5106403;28;20048;-84
2022/10/08 02:28:49;;;;;;;7.78;4.22;;;;;;;12.43;100.00;100606.06;5113017;28;20078;-83
2022/10/08 02:31:40;;;;;;;13.60;4.55;;;;;;;12.39;100.00;100604.47;5098626;28;20051;-85
2022/10/08 02:34:28;;;;;;;9.77;4.55;;;;;;;12.42;100.00;100606.97;5103151;27;20044;-72
2022/10/08 02:37:02;;;;;;;10.77;4.97;;;;;;;12.36;100.00;100600.19;5102312;28;20052;-83
2022/10/08 02:39:32;;;;;;;11.95;4.35;;;;;;;12.38;100.00;100602.75;5104061;28;20067;-76
2022/10/08 02:42:00;;;;;;;;;;;;;;;12.36;100.00;100607.28;5107031;28;20119;-83
2022/10/08 02:45:09;;;;;;;8.75;4.18;;;;;;;12.33;100.00;100602.13;5104162;28;19951;-73
2022/10/08 02:47:38;;;;;;;7.55;4.10;;;;;;;12.26;100.00;100609.56;5037484;28;20044;-77
2022/10/08 02:50:11;;;;;;;7.60;4.20;;;;;;;12.12;100.00;100596.13;5101181;28;20392;-84
2022/10/08 02:52:41;;;;;;;8.68;4.00;;;;;;;11.98;100.00;100578.19;5104692;28;20498;-78
2022/10/08 02:55:23;;;;;;;8.73;4.38;;;;;;;11.88;100.00;100572.50;5098058;28;20047;-86
2022/10/08 02:57:58;;;;;;;10.50;4.25;;;;;;;12.02;100.00;100611.63;5098366;28;20060;-86
2022/10/08 03:00:33;;;;;;;8.30;4.07;;;;;;;12.01;100.00;100607.25;5101472;28;20058;-86
2022/10/08 03:03:19;;;;;;;8.55;3.60;;;;;;;11.85;100.00;100582.41;5101045;28;20141;-78
2022/10/08 03:05:48;;;;;;;10.23;3.90;;;;;;;11.86;100.00;100586.78;5104584;28;20069;-74
2022/10/08 03:08:16;;;;;;;7.70;4.00;;;;;;;11.89;100.00;100586.63;5103934;28;20048;-84
2022/10/08 03:10:43;;;;;;;8.93;4.40;;;;;;;12.03;100.00;100612.50;5104128;28;20069;-72
2022/10/08 03:13:11;;;;;;;6.93;4.30;;;;;;;11.87;100.00;100577.88;5102544;28;20039;-78
2022/10/08 03:15:40;;;;;;;11.73;4.70;;;;;;;12.02;100.00;100608.97;5106866;28;20138;-77
2022/10/08 03:18:10;;;;;;;8.10;4.60;;;;;;;11.86;100.00;100578.81;5107202;27;20070;-78
2022/10/08 03:20:46;;;;;;;9.02;4.70;;;;;;;11.90;100.00;100605.13;5108287;28;20039;-76
2022/10/08 03:23:16;;;;;;;11.13;5.15;;;;;;;11.84;100.00;100613.38;5108631;27;20052;-82
2022/10/08 03:25:44;;;;;;;9.65;4.55;;;;;;;11.59;100.00;100591.59;5107060;28;20058;-77
2022/10/08 03:28:11;;;;;;;12.25;4.55;;;;;;;11.65;100.00;100611.69;5101193;28;20119;-85
2022/10/08 03:30:37;;;;;;;12.13;4.90;;;;;;;11.59;100.00;100613.69;5114487;28;20035;-74
2022/10/08 03:33:04;;;;;;;11.13;5.18;;;;;;;11.54;100.00;100623.66;5114665;28;20071;-78
2022/10/08 03:35:31;;;;;;;9.23;4.97;;;;;;;11.51;100.00;100631.75;5119656;28;20040;-76
2022/10/08 03:37:57;;;;;;;11.15;5.25;;;;;;;11.42;100.00;100624.22;5117247;27;20071;-72
2022/10/08 03:40:24;;;;;;;11.88;5.13;;;;;;;11.43;100.00;100631.25;5116842;28;20116;-79
2022/10/08 03:42:50;;;;;;;10.15;5.38;;;;;;;11.40;100.00;100636.69;5116977;28;20044;-75
2022/10/08 03:45:17;;;;;;;10.15;4.63;;;;;;;11.36;100.00;100639.53;5116915;28;20165;-74
2022/10/08 03:47:50;;;;;;;10.95;4.95;;;;;;;11.19;100.00;100612.03;5112549;28;20103;-73
2022/10/08 03:50:17;;;;;;;9.68;4.65;;;;;;;11.33;100.00;100635.28;5101792;27;20584;-83
2022/10/08 03:52:44;;;;;;;9.43;4.47;;;;;;;11.27;100.00;100627.59;5098779;28;20629;-78
2022/10/08 03:55:11;;;;;;;13.95;5.15;;;;;;;11.26;100.00;100636.47;5105143;28;20126;-80
2022/10/08 03:57:37;;;;;;;15.48;5.45;;;;;;;11.23;100.00;100647.22;5102392;28;20475;-83
2022/10/08 04:00:05;;;;;;;11.60;5.13;;;;;;;11.17;100.00;100644.84;5102218;28;20040;-78
2022/10/08 04:02:31;;;;;;;10.35;5.82;;;;;;;11.02;100.00;100634.94;5100484;28;20074;-82
2022/10/08 04:04:58;;;;;;;10.45;5.72;;;;;;;11.09;100.00;100655.78;5102605;28;20055;-84
2022/10/08 04:07:26;;;;;;;9.80;5.05;;;;;;;10.94;100.00;100632.63;5106873;28;20043;-77
2022/10/08 04:09:52;;;;;;;10.82;5.68;;;;;;;11.05;100.00;100656.84;5099812;28;20052;-82
2022/10/08 04:12:19;;;;;;;15.27;5.68;;;;;;;10.84;100.00;100634.84;5103803;28;20052;-80
2022/10/08 04:14:45;;;;;;;10.80;5.15;;;;;;;10.95;100.00;100654.69;5100437;28;20062;-71
2022/10/08 04:17:12;;;;;;;10.07;5.22;;;;;;;10.87;100.00;100644.41;5105629;28;20472;-80
2022/10/08 04:19:38;;;;;;;13.68;5.63;;;;;;;10.85;100.00;100655.09;5101439;28;20109;-76
2022/10/08 04:22:05;;;;;;;11.88;5.60;;;;;;;10.80;100.00;100657.09;5099956;28;20138;-82
2022/10/08 04:24:31;;;;;;;10.15;5.18;;;;;;;10.82;100.00;100657.88;5106126;28;20052;-76
2022/10/08 04:26:58;;;;;;;12.30;5.43;;;;;;;10.87;100.00;100657.66;5099448;28;20111;-80
2022/10/08 04:29:25;;;;;;;14.75;4.75;;;;;;;10.80;100.00;100635.91;5104023;28;20050;-83
2022/10/08 04:31:51;;;;;;;7.35;5.03;;;;;;;10.77;100.00;100630.72;5100756;28;20042;-78
2022/10/08 04:34:18;;;;;;;10.93;5.53;;;;;;;10.92;100.00;100668.94;5102055;28;21594;-84
2022/10/08 04:36:44;;;;;;;9.55;4.68;;;;;;;10.78;100.00;100645.69;5101142;28;20107;-80
2022/10/08 04:39:11;;;;;;;9.35;5.18;;;;;;;10.84;100.00;100671.94;5094653;28;20047;-83
2022/10/08 04:41:38;;;;;;;8.68;5.05;;;;;;;10.75;100.00;100663.50;5101101;28;20130;-77
2022/10/08 04:44:04;;;;;;;9.52;4.13;;;;;;;10.76;100.00;100668.72;5099169;28;20137;-84
2022/10/08 04:46:31;;;;;;;10.55;4.70;;;;;;;10.66;100.00;100650.66;5095544;28;20155;-76
2022/10/08 04:48:58;;;;;;;9.27;4.53;;;;;;;10.66;100.00;100650.66;5101379;28;20098;-77
2022/10/08 04:51:26;;;;;;;10.85;5.50;;;;;;;10.58;100.00;100655.41;5102905;28;20047;-80
2022/10/08 04:53:55;;;;;;;10.98;5.40;;;;;;;10.59;100.00;100671.25;5100662;28;20469;-77
2022/10/08 04:56:27;;;;;;;8.40;4.90;;;;;;;10.59;100.00;100679.19;5102240;28;20522;-79
2022/10/08 04:58:55;;;;;;;10.80;5.05;;;;;;;10.56;100.00;100687.25;5097010;28;20048;-76
2022/10/08 05:01:24;;;;;;;9.40;4.78;;;;;;;10.57;100.00;100690.75;5096871;28;20376;-80
2022/10/08 05:03:53;;;;;;;6.97;4.43;;;;;;;10.54;100.00;100695.28;5099956;28;20078;-72
2022/10/08 05:06:23;;;;;;;8.45;4.90;;;;;;;10.27;100.00;100653.19;5098260;28;20048;-77
2022/10/08 05:08:50;;;;;;;8.23;4.60;;;;;;;10.50;100.00;100700.78;5100280;28;20071;-79
2022/10/08 05:11:18;;;;;;;10.90;4.75;;;;;;;10.44;100.00;100693.94;5095492;28;20054;-81
2022/10/08 05:13:52;;;;;;;10.55;4.70;;;;;;;10.43;100.00;100696.63;5104304;28;20059;-78
2022/10/08 05:16:19;;;;;;;11.05;4.80;;;;;;;10.35;100.00;100682.88;5104861;28;20475;-79
2022/10/08 05:18:46;;;;;;;15.80;5.72;;;;;;;10.14;100.00;100650.19;5102251;28;20039;-74
2022/10/08 05:21:15;;;;;;;12.73;5.53;;;;;;;10.25;100.00;100666.50;5104055;28;20060;-81
2022/10/08 05:23:42;;;;;;;11.65;5.63;;;;;;;10.38;100.00;100694.22;5100636;28;20048;-78
2022/10/08 05:26:17;;;;;;;11.95;6.30;;;;;;;10.25;100.00;100669.16;5101281;27;20107;-81
2022/10/08 05:28:45;;;;;;;10.23;5.35;;;;;;;10.40;100.00;100692.34;5113414;28;20134;-73
2022/10/08 05:31:15;;;;;;;10.77;5.28;;;;;;;10.43;100.00;100701.94;5109410;28;20103;-76
2022/10/08 05:33:42;;;;;;;13.45;5.72;;;;;;;10.31;100.00;100673.34;5112680;28;20055;-76
2022/10/08 05:36:15;;;;;;;13.48;5.50;;;;;;;10.52;100.00;100707.72;5102101;28;20050;-83
2022/10/08 05:38:45;;;;;;;9.70;5.20;;;;;;;10.59;100.00;100702.16;5106726;28;20040;-76
2022/10/08 05:41:14;;;;;;;12.63;5.25;;;;;;;10.51;100.00;100679.53;5107132;28;20083;-74
2022/10/08 05:43:41;;;;;;;11.40;5.63;;;;;;;10.74;100.00;100706.81;5109925;28;20035;-72
2022/10/08 05:46:08;;;;;;;10.93;5.80;;;;;;;10.55;100.00;100678.44;5110757;28;20598;-77
2022/10/08 05:48:35;;;;;;;13.98;6.10;;;;;;;10.68;100.00;100715.88;5115662;28;20055;-76
2022/10/08 05:51:18;;;;;;;16.30;6.15;;;;;;;10.63;100.00;100719.66;5113594;28;20058;-76
2022/10/08 05:53:47;;;;;;;11.50;5.57;;;;;;;10.58;100.00;100718.97;5115514;28;20147;-78
2022/10/08 05:56:16;;;;;;;12.10;5.70;;;;;;;10.54;100.00;100699.72;5114504;28;20028;-77
2022/10/08 05:58:43;;;;;;;11.48;5.45;;;;;;;10.70;100.00;100726.44;5121476;28;20063;-73
2022/10/08 06:01:19;;;;;;;12.15;5.47;;;;;;;10.60;100.00;100699.44;5122335;27;20043;-75
2022/10/08 06:03:54;;;;;;;14.57;5.47;;;;;;;10.79;100.00;100726.88;5129618;28;20104;-76
2022/10/08 06:06:21;;;;;;;11.13;5.25;;;;;;;10.71;100.00;100707.78;5109187;28;20043;-82
2022/10/08 06:08:57;;;;;;;12.32;5.63;;;;;;;10.92;100.00;100731.66;5108142;28;20053;-82
2022/10/08 06:11:29;;;;;;;15.02;6.10;;;;;;;10.97;100.00;100727.03;5109306;28;20050;-79
2022/10/08 06:13:57;;;;;;;12.77;6.28;;;;;;;10.88;100.00;100709.72;5107393;28;20049;-83
2022/10/08 06:16:25;;;;;;;16.70;6.32;;;;;;;11.02;100.00;100723.22;5101177;28;20436;-80
2022/10/08 06:18:52;;;;;;;16.17;6.45;;;;;;;11.06;100.00;100729.25;5112802;28;20054;-82
2022/10/08 06:21:21;;;;;;;15.02;6.25;;;;;;;11.07;100.00;100737.16;5107596;28;20135;-84
2022/10/08 06:23:53;;;;;;;13.55;6.75;;;;;;;11.06;100.00;100734.56;5112833;27;20169;-84
2022/10/08 06:26:21;;;;;;;12.70;5.85;;;;;;;11.08;100.00;100738.00;5106232;28;20052;-83
2022/10/08 06:28:48;;;;;;;11.25;6.18;;;;;;;11.09;100.00;100734.44;5107173;28;20058;-84
2022/10/08 06:31:16;;;;;;;13.65;6.00;;;;;;;11.11;100.00;100727.28;5109183;28;20035;-81
2022/10/08 06:33:43;;;;;;;16.08;6.07;;;;;;;11.15;100.00;100739.47;5110946;27;20047;-76
2022/10/08 06:36:14;;;;;;;13.00;5.50;;;;;;;11.08;100.00;100725.63;5113626;28;20036;-79
2022/10/08 06:38:40;;;;;;;;;;;;;;;11.19;100.00;100725.13;5113139;28;20066;-76
2022/10/08 06:41:07;;;;;;;13.85;6.10;;;;;;;11.23;100.00;100732.91;5106929;28;19928;-82
2022/10/08 06:43:34;;;;;;;11.60;5.18;;;;;;;11.08;100.00;100709.72;5114367;28;20086;-82
2022/10/08 06:46:04;;;;;;;8.63;4.53;;;;;;;11.28;100.00;100730.06;5111324;28;20149;-82
2022/10/08 06:48:31;;;;;;;;;;;;;;;11.34;100.00;100743.00;5115890;28;20110;-85
2022/10/08 06:51:01;;;;;;;10.65;4.72;;;;;;;11.35;100.00;100742.09;5108724;28;19920;-84
2022/10/08 06:53:27;;;;;;;11.60;4.82;;;;;;;11.39;100.00;100741.03;5113142;28;20080;-81
2022/10/08 06:56:03;;;;;;;11.05;5.20;;;;;;;11.47;100.00;100756.63;5105844;28;20054;-78
2022/10/08 06:58:30;;;;;;;10.60;5.10;;;;;;;11.55;100.00;100759.75;5105974;28;20044;-78
2022/10/08 07:01:05;;;;;;;10.95;5.03;;;;;;;11.67;100.00;100767.16;5103322;27;20071;-73
2022/10/08 07:03:33;;;;;;;9.23;5.35;;;;;;;11.75;100.00;100770.34;5113969;28;20531;-79
2022/10/08 07:06:02;;;;;;;11.52;6.38;;;;;;;11.88;100.00;100760.91;5107502;28;20058;-81
2022/10/08 07:08:29;;;;;;;10.43;5.63;;;;;;;11.98;100.00;100740.09;5105425;28;20295;-83
2022/10/08 07:11:07;;;;;;;13.07;4.93;;;;;;;12.15;98.05;100740.16;5100128;27;20155;-84
2022/10/08 07:13:34;;;;;;;12.68;4.78;;;;;;;12.30;96.36;100744.72;5108315;28;20047;-83
2022/10/08 07:16:02;;;;;;;13.32;5.25;;;;;;;12.72;94.81;100763.97;5106579;28;20040;-83
2022/10/08 07:18:30;;;;;;;14.02;5.43;;;;;;;12.99;91.97;100767.88;5109011;28;20044;-83
2022/10/08 07:20:56;;;;;;;10.32;4.78;;;;;;;13.18;90.72;100767.84;5107963;28;20071;-84
2022/10/08 07:23:23;;;;;;;12.73;5.47;;;;;;;13.21;88.90;100768.53;5103840;27;20637;-85
2022/10/08 07:26:15;;;;;;;8.82;5.10;;;;;;;13.10;90.42;100786.78;5104082;28;20138;-77
2022/10/08 07:28:50;;;;;;;10.80;5.70;;;;;;;12.94;89.82;100797.34;5091399;28;20054;-78
2022/10/08 07:31:23;;;;;;;18.58;8.70;;;;;;;12.83;90.69;100797.03;5100174;28;20039;-78
2022/10/08 07:33:50;;;;;;;11.25;5.72;;;;;;;12.85;91.76;100792.50;5098561;28;20062;-84
2022/10/08 07:36:19;;;;;;;12.82;6.03;;;;;;;12.89;90.71;100785.25;5107667;28;20052;-76
2022/10/08 07:38:49;;;;;;;13.50;6.45;;;;;;;12.86;90.79;100796.03;5106834;27;20103;-81
2022/10/08 07:41:16;;;;;;;15.55;6.15;;;;;;;12.87;89.95;100790.63;5108097;28;20051;-84
2022/10/08 07:43:43;;;;;;;13.95;5.47;;;;;;;12.84;90.76;100793.44;5115774;28;20122;-75
2022/10/08 07:46:10;;;;;;;11.38;4.85;;;;;;;13.23;89.63;100800.34;5111296;28;20487;-83
2022/10/08 07:48:38;;;;;;;13.48;4.88;;;;;;;13.53;85.48;100820.06;5110627;28;20082;-78
2022/10/08 07:51:09;;;;;;;10.65;4.60;;;;;;;13.53;85.71;100806.75;5099634;28;20497;-83
2022/10/08 07:53:37;;;;;;;15.45;5.20;;;;;;;13.53;85.25;100814.75;5099943;28;20131;-74
2022/10/08 07:56:05;;;;;;;13.82;4.63;;;;;;;13.51;86.59;100811.31;5099930;28;20054;-81
2022/10/08 07:58:32;;;;;;;11.45;4.65;;;;;;;13.55;84.79;100807.50;5103091;28;20099;-78
2022/10/08 08:01:00;;;;;;;11.43;4.80;;;;;;;13.33;84.77;100793.63;5103712;28;20047;-84
2022/10/08 08:03:26;;;;;;;10.45;4.65;;;;;;;13.62;85.14;100802.75;5110048;28;20126;-79
2022/10/08 08:05:58;;;;;;;10.52;4.80;;;;;;;13.88;82.19;100815.50;5103527;28;20181;-82
2022/10/08 08:08:25;;;;;;;10.23;4.63;;;;;;;13.93;82.46;100791.31;5104656;28;20051;-80
2022/10/08 08:10:59;;;;;;;9.05;4.22;;;;;;;14.57;79.31;100806.41;5106713;27;20050;-82
2022/10/08 08:13:31;;;;;;;12.70;4.32;;;;;;;14.86;77.35;100794.91;5099768;28;20064;-82
2022/10/08 08:16:11;;;;;;;9.95;4.15;;;;;;;15.33;74.81;100801.91;5103881;28;20052;-80
2022/10/08 08:18:41;;;;;;;10.63;3.83;;;;;;;15.54;72.96;100797.94;5101390;28;20415;-76
2022/10/08 08:21:11;;;;;;;14.88;5.65;;;;;;;15.61;71.53;100814.47;5102314;28;20062;-84
2022/10/08 08:23:41;;;;;;;10.13;4.30;;;;;;;15.38;72.85;100790.03;5098025;28;20413;-77
2022/10/08 08:26:11;;;;;;;10.40;3.22;;;;;;;15.42;72.39;100785.38;5103733;28;20118;-77
2022/10/08 08:28:38;;;;;;;8.75;2.72;;;;;;;15.53;70.94;100795.38;5098561;28;20135;-76
2022/10/08 08:31:15;;;;;;;7.55;2.38;;;;;;;15.44;70.14;100807.44;5107026;28;20051;-76
2022/10/08 08:33:46;;;;;;;9.32;2.80;;;;;;;15.00;70.77;100789.63;5104873;28;20052;-79
2022/10/08 08:36:13;;;;;;;10.45;2.80;;;;;;;15.11;71.61;100814.84;5099413;28;20054;-81
2022/10/08 08:38:39;;;;;;;9.98;2.50;;;;;;;15.26;70.74;100813.91;5100884;28;20151;-79
2022/10/08 08:41:40;;;;;;;11.15;3.17;;;;;;;15.51;71.19;100819.50;5099796;28;20070;-72
2022/10/08 08:44:17;;;;;;;12.18;2.55;;;;;;;15.45;69.04;100828.72;5097348;28;20075;-83
2022/10/08 08:46:51;;;;;;;7.32;2.15;;;;;;;15.25;69.82;100823.72;5097786;28;20043;-77
2022/10/08 08:49:39;;;;;;;9.90;2.58;;;;;;;15.02;71.56;100830.41;5095435;28;20067;-75
2022/10/08 08:52:08;;;;;;;6.40;2.17;;;;;;;14.77;72.56;100837.25;5082025;28;20044;-80
2022/10/08 08:54:35;;;;;;;8.68;2.97;;;;;;;14.56;73.95;100839.31;5100008;28;20059;-82
2022/10/08 08:57:31;;;;;;;6.32;2.50;;;;;;;14.41;74.91;100848.19;5100276;28;20233;-73
2022/10/08 09:00:04;;;;;;;8.52;2.80;;;;;;;14.30;74.89;100846.94;5101532;28;20264;-80
2022/10/08 09:02:50;;;;;;;10.65;2.45;;;;;;;14.24;74.98;100843.75;5106953;28;20050;-79
2022/10/08 09:05:19;;;;;;;6.60;2.00;;;;;;;14.23;73.25;100837.56;5104055;28;20053;-77
2022/10/08 09:07:50;;;;;;;10.63;2.35;;;;;;;14.20;74.28;100837.72;5103750;28;20503;-73
2022/10/08 09:10:26;;;;;;;8.38;2.30;;;;;;;14.25;74.46;100867.66;5112781;27;20063;-81
2022/10/08 09:12:55;;;;;;;6.55;2.80;;;;;;;14.34;74.88;100877.78;5097077;28;20054;-78
2022/10/08 09:15:35;;;;;;;10.65;2.53;;;;;;;14.50;74.75;100877.81;5104793;28;20565;-75
2022/10/08 09:18:04;;;;;;;8.60;2.00;;;;;;;14.57;74.75;100859.69;5104209;28;20115;-82
2022/10/08 09:20:31;;;;;;;7.28;2.28;;;;;;;14.59;73.96;100877.34;5106874;28;20211;-78
2022/10/08 09:23:09;;;;;;;10.32;2.20;;;;;;;14.53;74.10;100884.78;5118174;28;20040;-80
2022/10/08 09:25:36;;;;;;;8.95;2.92;;;;;;;14.30;75.14;100862.94;5111070;28;20139;-80
2022/10/08 09:28:05;;;;;;;11.00;2.38;;;;;;;14.47;75.01;100885.16;5113451;28;20052;-80
2022/10/08 09:30:40;;;;;;;7.30;2.25;;;;;;;14.31;75.14;100864.66;5112267;28;20048;-77
2022/10/08 09:33:15;;;;;;;10.02;2.75;;;;;;;14.38;75.57;100876.69;5098021;28;20053;-84
2022/10/08 09:35:47;;;;;;;5.88;2.00;;;;;;;14.50;74.78;100890.28;5110387;28;20070;-81
2022/10/08 09:38:36;;;;;;;8.25;2.20;;;;;;;14.51;74.44;100895.53;5117050;27;20044;-85
2022/10/08 09:41:15;;;;;;;10.65;2.90;;;;;;;14.57;74.84;100900.53;5114457;28;20342;-83
2022/10/08 09:43:44;;;;;;;10.85;3.05;;;;;;;14.57;75.00;100875.69;5118137;28;20051;-78
2022/10/08 09:46:28;;;;;;;8.00;2.30;;;;;;;14.87;74.51;100900.63;5122195;28;20024;-78
2022/10/08 09:48:56;;;;;;;8.50;2.33;;;;;;;14.88;74.34;100909.50;5118725;28;20044;-76
2022/10/08 09:51:23;;;;;;;6.78;1.88;;;;;;;14.96;74.44;100913.44;5118743;28;20067;-83
2022/10/08 09:53:57;;;;;;;8.00;2.50;;;;;;;14.88;74.29;100926.34;5114910;27;20048;-79
2022/10/08 09:56:27;;;;;;;9.02;2.45;;;;;;;14.93;74.92;100918.97;5114828;28;20082;-73
2022/10/08 09:59:02;;;;;;;9.30;2.60;;;;;;;14.95;74.16;100898.38;5104639;28;20074;-80
2022/10/08 10:01:30;;;;;;;10.75;2.58;;;;;;;15.30;73.34;100927.50;5104329;28;20709;-84
2022/10/08 10:04:01;;;;;;;11.02;2.15;;;;;;;15.22;72.62;100933.28;5110241;28;20048;-86
2022/10/08 10:06:35;;;;;;;9.43;2.30;;;;;;;15.21;72.81;100922.72;5105465;27;20052;-79
2022/10/08 10:09:33;;;;;;;7.43;2.65;;;;;;;15.39;72.99;100938.50;5109281;28;20044;-78
2022/10/08 10:12:31;;;;;;;9.35;2.33;;;;;;;15.61;71.65;100938.13;5109461;28;20042;-78
2022/10/08 10:15:09;;;;;;;7.43;2.25;;;;;;;15.65;71.03;100925.47;5102050;28;20051;-83
2022/10/08 10:17:58;;;;;;;6.20;1.90;;;;;;;15.62;71.39;100936.31;5113938;28;21580;-76
2022/10/08 10:20:51;;;;;;;9.93;2.33;;;;;;;15.75;71.75;100940.84;5114840;28;20119;-78
2022/10/08 10:23:27;;;;;;;8.55;2.03;;;;;;;15.84;70.98;100949.25;5110641;28;20054;-77
2022/10/08 10:25:59;;;;;;;7.03;1.80;;;;;;;15.69;71.41;100940.34;5115726;28;20059;-73
2022/10/08 10:28:47;;;;;;;7.32;1.90;;;;;;;15.76;71.58;100928.34;5111565;28;20107;-72
2022/10/08 10:31:35;;;;;;;4.10;1.65;;;;;;;15.99;72.05;100943.00;5114042;28;20040;-79
2022/10/08 10:34:26;;;;;;;5.40;2.00;;;;;;;16.10;71.09;100929.84;5109812;28;20139;-79
2022/10/08 10:36:57;;;;;;;;;;;;;;;16.10;71.11;100945.88;5104114;28;20086;-76
2022/10/08 10:39:49;;;;;;;4.68;1.90;;;;;;;15.85;71.90;100934.97;5105103;28;19991;-78
2022/10/08 10:42:31;;;;;;;5.65;1.80;;;;;;;15.81;72.98;100936.09;5109958;28;20111;-73
2022/10/08 10:45:21;;;;;;;3.53;1.75;;;;;;;15.76;73.58;100899.84;5120264;28;20146;-77
2022/10/08 10:47:49;;;;;;;5.22;1.80;;;;;;;15.92;72.71;100912.25;5111263;28;20049;-74
2022/10/08 10:50:27;;;;;;;4.90;2.00;;;;;;;15.99;72.75;100932.31;5113124;28;20047;-85
2022/10/08 10:53:18;;;;;;;5.22;1.75;;;;;;;16.02;71.79;100938.34;5100093;28;20077;-85
2022/10/08 10:56:07;;;;;;;8.82;2.28;;;;;;;16.19;71.69;100944.47;5098959;28;20450;-77
2022/10/08 10:58:55;;;;;;;6.25;2.15;;;;;;;16.48;70.91;100939.00;5097045;28;20062;-84
2022/10/08 11:01:48;;;;;;;4.22;1.67;;;;;;;16.61;70.03;100943.59;5107478;28;20093;-83
2022/10/08 11:04:51;;;;;;;5.65;1.92;;;;;;;16.48;71.39;100939.00;5106901;28;20455;-79
2022/10/08 11:07:29;;;;;;;3.72;1.73;;;;;;;16.19;71.98;100949.81;5025425;28;20047;-78
2022/10/08 11:10:22;;;;;;;7.20;2.40;;;;;;;15.85;73.26;100927.81;5110866;28;20108;-82
2022/10/08 11:13:06;;;;;;;4.72;2.28;;;;;;;15.92;74.67;100955.84;5101870;28;20055;-83
2022/10/08 11:15:40;;;;;;;4.97;2.30;;;;;;;15.97;73.04;100942.22;5104517;28;20062;-81
2022/10/08 11:18:34;;;;;;;6.20;2.97;;;;;;;15.95;73.84;100930.78;5108076;28;20053;-82
2022/10/08 11:21:22;;;;;;;5.47;2.38;;;;;;;16.20;71.66;100930.16;5107770;28;20513;-81
2022/10/08 11:24:00;;;;;;;3.33;1.80;;;;;;;16.65;70.16;100937.13;5102940;28;20089;-82
2022/10/08 11:26:46;;;;;;;4.30;2.30;;;;;;;17.00;69.12;100938.38;5106669;28;20040;-85
2022/10/08 11:29:19;;;;;;;3.88;2.00;;;;;;;16.84;66.05;100929.66;5068147;28;20048;-75
2022/10/08 11:31:48;;;;;;;4.15;2.00;;;;;;;16.79;66.94;100953.16;5101176;28;20043;-77
2022/10/08 11:34:32;;;;;;;4.35;2.03;;;;;;;16.61;67.58;100956.94;5102074;28;20039;-77
2022/10/08 11:37:15;;;;;;;6.10;2.05;;;;;;;16.38;69.37;100956.56;5105557;28;20047;-74
2022/10/08 11:39:58;;;;;;;6.63;2.00;;;;;;;16.39;69.17;100942.25;5111138;28;20470;-80
2022/10/08 11:42:39;;;;;;;5.28;2.25;;;;;;;16.55;67.74;100946.63;5097631;28;20503;-81
2022/10/08 11:45:14;;;;;;;4.15;1.75;;;;;;;16.42;66.00;100934.03;5100937;28;20063;-82